createdAt,value
2018-08-23T00:02:41.054Z,99885.00
2018-08-23T00:05:08.621Z,99892.00
2018-08-23T00:07:36.226Z,99887.00
2018-08-23T00:10:03.962Z,99881.00
2018-08-23T00:12:44.080Z,99881.00
2018-08-23T00:15:13.592Z,99883.00
2018-08-23T00:17:45.015Z,99885.00
2018-08-23T00:20:14.306Z,99885.00
2018-08-23T00:22:42.069Z,99884.00
2018-08-23T00:25:09.776Z,99883.00
2018-08-23T00:27:37.681Z,99875.00
2018-08-23T00:30:08.442Z,99885.00
2018-08-23T00:32:36.286Z,99888.00
2018-08-23T00:35:03.869Z,99885.00
2018-08-23T00:37:31.505Z,99889.00
2018-08-23T00:40:04.105Z,99882.00
2018-08-23T00:42:31.651Z,99876.00
2018-08-23T00:45:01.212Z,99879.00
2018-08-23T00:47:29.738Z,99873.00
2018-08-23T00:49:57.399Z,99872.00
2018-08-23T00:52:40.024Z,99873.00
2018-08-23T00:55:21.694Z,99870.00
2018-08-23T00:57:50.012Z,99867.00
2018-08-23T01:00:20.180Z,99863.00
2018-08-23T01:02:49.278Z,99867.00
2018-08-23T01:05:22.835Z,99868.00
2018-08-23T01:07:50.757Z,99863.00
2018-08-23T01:10:18.414Z,99867.00
2018-08-23T01:12:57.975Z,99858.00
2018-08-23T01:15:25.847Z,99853.00
2018-08-23T01:18:11.087Z,99852.00
2018-08-23T01:20:39.601Z,99853.00
2018-08-23T01:23:07.241Z,99856.00
2018-08-23T01:25:40.413Z,99848.00
2018-08-23T01:28:08.447Z,99847.00
2018-08-23T01:30:36.530Z,99841.00
2018-08-23T01:33:04.649Z,99840.00
2018-08-23T01:35:32.296Z,99834.00
2018-08-23T01:37:59.941Z,99833.00
2018-08-23T01:40:27.876Z,99832.00
2018-08-23T01:42:55.459Z,99831.00
2018-08-23T01:45:23.128Z,99831.00
2018-08-23T01:47:55.857Z,99831.00
2018-08-23T01:50:23.991Z,99825.00
2018-08-23T01:52:53.549Z,99833.00
2018-08-23T01:55:22.168Z,99827.00
2018-08-23T01:57:50.261Z,99826.00
2018-08-23T02:00:22.586Z,99823.00
2018-08-23T02:02:50.210Z,99826.00
2018-08-23T02:05:37.568Z,99826.00
2018-08-23T02:08:44.069Z,99825.00
2018-08-23T02:11:49.699Z,99823.00
2018-08-23T02:14:30.280Z,99824.00
2018-08-23T02:17:37.906Z,99822.00
2018-08-23T02:20:28.228Z,99826.00
2018-08-23T02:23:19.004Z,99815.00
2018-08-23T02:25:47.942Z,99816.00
2018-08-23T02:28:32.250Z,99813.00
2018-08-23T02:31:15.672Z,99808.00
2018-08-23T02:33:43.315Z,99813.00
2018-08-23T02:36:17.966Z,99815.00
2018-08-23T02:38:48.678Z,99814.00
2018-08-23T02:41:16.610Z,99814.00
2018-08-23T02:43:44.823Z,99808.00
2018-08-23T02:46:12.492Z,99805.00
2018-08-23T02:48:40.269Z,99807.00
2018-08-23T02:51:08.138Z,99805.00
2018-08-23T02:53:38.670Z,99804.00
2018-08-23T02:56:10.322Z,99804.00
2018-08-23T02:58:48.608Z,99798.00
2018-08-23T03:01:16.521Z,99795.00
2018-08-23T03:04:01.901Z,99803.00
2018-08-23T03:06:33.849Z,99799.00
2018-08-23T03:09:01.678Z,99805.00
2018-08-23T03:11:29.253Z,99802.00
2018-08-23T03:13:57.242Z,99804.00
2018-08-23T03:16:25.205Z,99802.00
2018-08-23T03:18:52.826Z,99806.00
2018-08-23T03:21:20.587Z,99803.00
2018-08-23T03:23:48.160Z,99804.00
2018-08-23T03:26:15.721Z,99797.00
2018-08-23T03:28:43.362Z,99794.00
2018-08-23T03:31:10.924Z,99803.00
2018-08-23T03:33:38.566Z,99803.00
2018-08-23T03:36:06.466Z,99806.00
2018-08-23T03:38:34.021Z,99805.00
2018-08-23T03:41:01.580Z,99805.00
2018-08-23T03:43:30.092Z,99803.00
2018-08-23T03:45:58.549Z,99799.00
2018-08-23T03:48:26.124Z,99796.00
2018-08-23T03:50:53.797Z,99801.00
2018-08-23T03:53:21.821Z,99801.00
2018-08-23T03:56:06.397Z,99804.00
2018-08-23T03:58:34.832Z,99802.00
2018-08-23T04:01:03.744Z,99801.00
2018-08-23T04:03:32.003Z,99800.00
2018-08-23T04:06:22.232Z,99795.00
2018-08-23T04:08:50.023Z,99799.00
2018-08-23T04:11:18.138Z,99801.00
2018-08-23T04:13:46.953Z,99805.00
2018-08-23T04:16:21.580Z,99802.00
2018-08-23T04:18:49.229Z,99798.00
2018-08-23T04:21:16.850Z,99797.00
2018-08-23T04:23:44.441Z,99800.00
2018-08-23T04:26:12.284Z,99796.00
2018-08-23T04:28:40.313Z,99792.00
2018-08-23T04:31:07.912Z,99794.00
2018-08-23T04:33:35.597Z,99786.00
2018-08-23T04:36:03.231Z,99783.00
2018-08-23T04:38:32.416Z,99786.00
2018-08-23T04:41:03.940Z,99780.00
2018-08-23T04:43:32.261Z,99786.00
2018-08-23T04:46:02.431Z,99787.00
2018-08-23T04:48:29.964Z,99791.00
2018-08-23T04:50:57.689Z,99786.00
2018-08-23T04:53:25.288Z,99792.00
2018-08-23T04:55:53.127Z,99789.00
2018-08-23T04:58:20.830Z,99781.00
2018-08-23T05:00:48.408Z,99780.00
2018-08-23T05:03:16.311Z,99780.00
2018-08-23T05:05:43.883Z,99780.00
2018-08-23T05:08:11.435Z,99780.00
2018-08-23T05:10:39.225Z,99780.00
2018-08-23T05:13:06.871Z,99779.00
2018-08-23T05:15:34.497Z,99779.00
2018-08-23T05:18:02.597Z,99784.00
2018-08-23T05:20:30.484Z,99777.00
2018-08-23T05:23:03.881Z,99773.00
2018-08-23T05:25:31.477Z,99773.00
2018-08-23T05:28:24.565Z,99774.00
2018-08-23T05:30:52.186Z,99768.00
2018-08-23T05:33:20.874Z,99768.00
2018-08-23T05:35:48.977Z,99767.00
2018-08-23T05:38:17.430Z,99765.00
2018-08-23T05:40:48.684Z,99762.00
2018-08-23T05:43:16.388Z,99764.00
2018-08-23T05:46:02.270Z,99761.00
2018-08-23T05:48:30.077Z,99761.00
2018-08-23T05:51:07.332Z,99756.00
2018-08-23T05:53:48.180Z,99755.00
2018-08-23T05:56:18.117Z,99756.00
2018-08-23T05:58:45.744Z,99754.00
2018-08-23T06:01:13.450Z,99754.00
2018-08-23T06:03:41.464Z,99754.00
2018-08-23T06:06:09.106Z,99750.00
2018-08-23T06:08:40.361Z,99752.00
2018-08-23T06:11:09.303Z,99755.00
2018-08-23T06:13:36.943Z,99750.00
2018-08-23T06:16:04.597Z,99750.00
2018-08-23T06:18:32.530Z,99750.00
2018-08-23T06:21:00.189Z,99748.00
2018-08-23T06:23:57.048Z,99741.00
2018-08-23T06:26:44.709Z,99745.00
2018-08-23T06:29:23.072Z,99736.00
2018-08-23T06:31:59.347Z,99737.00
2018-08-23T06:34:28.853Z,99735.00
2018-08-23T06:36:56.490Z,99734.00
2018-08-23T06:39:24.041Z,99742.00
2018-08-23T06:41:55.045Z,99742.00
2018-08-23T06:44:27.649Z,99741.00
2018-08-23T06:46:55.409Z,99741.00
2018-08-23T06:49:22.971Z,99734.00
2018-08-23T06:52:02.665Z,99732.00
2018-08-23T06:54:30.258Z,99729.00
2018-08-23T06:56:57.929Z,99725.00
2018-08-23T06:59:25.642Z,99719.00
2018-08-23T07:01:53.218Z,99721.00
2018-08-23T07:04:20.967Z,99720.00
2018-08-23T07:06:48.606Z,99722.00
2018-08-23T07:09:17.422Z,99719.00
2018-08-23T07:11:45.479Z,99717.00
2018-08-23T07:14:17.184Z,99712.00
2018-08-23T07:16:46.620Z,99711.00
2018-08-23T07:19:27.825Z,99709.00
2018-08-23T07:21:56.185Z,99710.00
2018-08-23T07:24:39.698Z,99713.00
2018-08-23T07:27:08.836Z,99710.00
2018-08-23T07:29:36.448Z,99702.00
2018-08-23T07:32:06.593Z,99701.00
2018-08-23T07:34:34.693Z,99700.00
2018-08-23T07:37:06.230Z,99707.00
2018-08-23T07:39:33.921Z,99706.00
2018-08-23T07:42:01.603Z,99702.00
2018-08-23T07:44:29.301Z,99696.00
2018-08-23T07:46:56.860Z,99701.00
2018-08-23T07:49:24.467Z,99701.00
2018-08-23T07:51:52.516Z,99701.00
2018-08-23T07:54:21.970Z,99697.00
2018-08-23T07:56:49.544Z,99700.00
2018-08-23T07:59:17.419Z,99705.00
2018-08-23T08:01:44.963Z,99698.00
2018-08-23T08:04:12.548Z,99706.00
2018-08-23T08:06:40.233Z,99696.00
2018-08-23T08:09:10.125Z,99698.00
2018-08-23T08:11:51.451Z,99699.00
2018-08-23T08:14:24.841Z,99703.00
2018-08-23T08:16:54.461Z,99691.00
2018-08-23T08:19:22.172Z,99693.00
2018-08-23T08:21:49.700Z,99699.00
2018-08-23T08:24:17.289Z,99684.00
2018-08-23T08:26:45.146Z,99690.00
2018-08-23T08:29:27.219Z,99681.00
2018-08-23T08:31:55.118Z,99685.00
2018-08-23T08:34:24.408Z,99688.00
2018-08-23T08:36:51.986Z,99684.00
2018-08-23T08:39:19.966Z,99679.00
2018-08-23T08:41:47.492Z,99683.00
2018-08-23T08:44:15.749Z,99686.00
2018-08-23T08:46:43.456Z,99681.00
2018-08-23T08:49:11.218Z,99679.00
2018-08-23T08:51:38.797Z,99675.00
2018-08-23T08:54:06.394Z,99673.00
2018-08-23T08:56:39.935Z,99670.00
2018-08-23T08:59:07.567Z,99660.00
2018-08-23T09:01:35.389Z,99658.00
2018-08-23T09:04:03.048Z,99655.00
2018-08-23T09:06:36.296Z,99656.00
2018-08-23T09:09:25.237Z,99655.00
2018-08-23T09:11:52.792Z,99646.00
2018-08-23T09:14:20.505Z,99645.00
2018-08-23T09:16:48.333Z,99643.00
2018-08-23T09:19:15.955Z,99634.00
2018-08-23T09:21:49.967Z,99635.00
2018-08-23T09:24:26.194Z,99626.00
2018-08-23T09:26:54.542Z,99627.00
2018-08-23T09:29:35.157Z,99629.00
2018-08-23T09:32:16.054Z,99621.00
2018-08-23T09:34:43.846Z,99614.00
2018-08-23T09:37:11.427Z,99616.00
2018-08-23T09:39:39.807Z,99611.00
2018-08-23T09:42:07.637Z,99606.00
2018-08-23T09:44:55.634Z,99604.00
2018-08-23T09:47:23.181Z,99605.00
2018-08-23T09:49:50.691Z,99602.00
2018-08-23T09:52:21.368Z,99601.00
2018-08-23T09:54:48.819Z,99596.00
2018-08-23T09:57:16.355Z,99592.00
2018-08-23T09:59:45.604Z,99590.00
2018-08-23T10:02:19.090Z,99582.00
2018-08-23T10:04:52.789Z,99580.00
2018-08-23T10:07:26.149Z,99575.00
2018-08-23T10:09:59.672Z,99569.00
2018-08-23T10:12:32.902Z,99565.00
2018-08-23T10:15:06.327Z,99559.00
2018-08-23T10:17:39.685Z,99555.00
2018-08-23T10:20:13.166Z,99556.00
2018-08-23T10:22:50.511Z,99549.00
2018-08-23T10:25:36.256Z,99544.00
2018-08-23T10:28:05.525Z,99547.00
2018-08-23T10:30:33.050Z,99541.00
2018-08-23T10:33:00.646Z,99538.00
2018-08-23T10:35:28.456Z,99532.00
2018-08-23T10:37:56.045Z,99527.00
2018-08-23T10:40:23.889Z,99524.00
2018-08-23T10:42:51.661Z,99524.00
2018-08-23T10:45:19.526Z,99516.00
2018-08-23T10:47:53.033Z,99518.00
2018-08-23T10:50:20.903Z,99519.00
2018-08-23T10:52:48.488Z,99516.00
2018-08-23T10:55:16.328Z,99514.00
2018-08-23T10:57:43.698Z,99508.00
2018-08-23T11:00:11.280Z,99509.00
2018-08-23T11:02:38.827Z,99504.00
2018-08-23T11:05:06.441Z,99498.00
2018-08-23T11:07:39.756Z,99495.00
2018-08-23T11:10:13.156Z,99494.00
2018-08-23T11:12:46.695Z,99497.00
2018-08-23T11:15:20.196Z,99491.00
2018-08-23T11:17:53.675Z,99492.00
2018-08-23T11:20:26.227Z,99490.00
2018-08-23T11:22:54.137Z,99483.00
2018-08-23T11:25:22.929Z,99484.00
2018-08-23T11:27:50.783Z,99487.00
2018-08-23T11:30:19.046Z,99483.00
2018-08-23T11:32:46.957Z,99479.00
2018-08-23T11:35:14.650Z,99475.00
2018-08-23T11:37:42.176Z,99474.00
2018-08-23T11:40:09.850Z,99471.00
2018-08-23T11:42:37.463Z,99460.00
2018-08-23T11:45:05.389Z,99462.00
2018-08-23T11:47:32.929Z,99459.00
2018-08-23T11:50:00.495Z,99459.00
2018-08-23T11:52:28.085Z,99454.00
2018-08-23T11:54:55.641Z,99451.00
2018-08-23T11:57:23.441Z,99444.00
2018-08-23T11:59:51.005Z,99440.00
2018-08-23T12:02:18.965Z,99440.00
2018-08-23T12:04:46.557Z,99440.00
2018-08-23T12:07:14.166Z,99438.00
2018-08-23T12:09:42.049Z,99433.00
2018-08-23T12:12:09.785Z,99434.00
2018-08-23T12:14:37.077Z,99439.00
2018-08-23T12:17:05.128Z,99431.00
2018-08-23T12:19:32.736Z,99426.00
2018-08-23T12:22:00.277Z,99427.00
2018-08-23T12:24:28.021Z,99423.00
2018-08-23T12:26:56.091Z,99415.00
2018-08-23T12:29:23.654Z,99412.00
2018-08-23T12:31:54.026Z,99410.00
2018-08-23T12:34:31.589Z,99403.00
2018-08-23T12:37:05.510Z,99412.00
2018-08-23T12:39:38.769Z,99403.00
2018-08-23T12:42:12.185Z,99402.00
2018-08-23T12:44:45.453Z,99399.00
2018-08-23T12:47:13.222Z,99397.00
2018-08-23T12:49:44.182Z,99393.00
2018-08-23T12:52:11.725Z,99387.00
2018-08-23T12:54:39.499Z,99386.00
2018-08-23T12:57:07.105Z,99379.00
2018-08-23T12:59:34.949Z,99373.00
2018-08-23T13:02:02.673Z,99370.00
2018-08-23T13:04:30.201Z,99361.00
2018-08-23T13:06:57.772Z,99364.00
2018-08-23T13:09:25.647Z,99364.00
2018-08-23T13:11:53.201Z,99363.00
2018-08-23T13:14:20.814Z,99348.00
2018-08-23T13:16:48.696Z,99350.00
2018-08-23T13:19:16.649Z,99352.00
2018-08-23T13:21:44.691Z,99342.00
2018-08-23T13:24:12.538Z,99342.00
2018-08-23T13:26:44.084Z,99335.00
2018-08-23T13:29:12.266Z,99334.00
2018-08-23T13:31:39.824Z,99329.00
2018-08-23T13:34:07.449Z,99319.00
2018-08-23T13:36:35.439Z,99317.00
2018-08-23T13:39:04.756Z,99314.00
2018-08-23T13:41:32.657Z,99315.00
2018-08-23T13:44:00.297Z,99313.00
2018-08-23T13:46:27.829Z,99316.00
2018-08-23T13:48:55.956Z,99314.00
2018-08-23T13:51:23.685Z,99311.00
2018-08-23T13:53:51.382Z,99316.00
2018-08-23T13:56:19.208Z,99312.00
2018-08-23T13:58:46.818Z,99308.00
2018-08-23T14:01:14.942Z,99299.00
2018-08-23T14:03:42.855Z,99297.00
2018-08-23T14:06:10.558Z,99300.00
2018-08-23T14:08:38.376Z,99294.00
2018-08-23T14:11:05.993Z,99289.00
2018-08-23T14:13:33.556Z,99288.00
2018-08-23T14:16:04.626Z,99272.00
2018-08-23T14:18:33.535Z,99283.00
2018-08-23T14:21:01.109Z,99281.00
2018-08-23T14:23:28.707Z,99277.00
2018-08-23T14:25:56.297Z,99265.00
2018-08-23T14:28:23.936Z,99266.00
2018-08-23T14:30:52.105Z,99262.00
2018-08-23T14:33:20.331Z,99256.00
2018-08-23T14:35:47.898Z,99254.00
2018-08-23T14:38:15.797Z,99259.00
2018-08-23T14:40:43.348Z,99257.00
2018-08-23T14:43:11.609Z,99257.00
2018-08-23T14:45:39.262Z,99255.00
2018-08-23T14:48:14.405Z,99242.00
2018-08-23T14:50:42.175Z,99242.00
2018-08-23T14:53:09.782Z,99239.00
2018-08-23T14:55:43.273Z,99246.00
2018-08-23T14:58:11.161Z,99242.00
2018-08-23T15:00:38.751Z,99242.00
2018-08-23T15:03:06.522Z,99239.00
2018-08-23T15:05:34.103Z,99246.00
2018-08-23T15:08:01.751Z,99240.00
2018-08-23T15:10:43.339Z,99240.00
2018-08-23T15:13:27.536Z,99236.00
2018-08-23T15:16:33.832Z,99229.00
2018-08-23T15:19:01.633Z,99237.00
2018-08-23T15:21:29.493Z,99242.00
2018-08-23T15:23:57.499Z,99241.00
2018-08-23T15:26:25.310Z,99240.00
2018-08-23T15:28:53.370Z,99247.00
2018-08-23T15:31:21.619Z,99246.00
2018-08-23T15:33:50.083Z,99248.00
2018-08-23T15:36:17.775Z,99262.00
2018-08-23T15:38:45.522Z,99273.00
2018-08-23T15:41:13.400Z,99278.00
2018-08-23T15:43:41.511Z,99287.00
2018-08-23T15:46:09.309Z,99333.00
2018-08-23T15:48:36.965Z,99352.00
2018-08-23T15:51:04.868Z,99371.00
2018-08-23T15:53:32.468Z,99351.00
2018-08-23T15:56:00.231Z,99362.00
2018-08-23T15:58:28.138Z,99380.00
2018-08-23T16:00:55.820Z,99405.00
2018-08-23T16:03:23.489Z,99419.00
2018-08-23T16:05:51.383Z,99415.00
2018-08-23T16:08:18.962Z,99441.00
2018-08-23T16:10:46.776Z,99453.00
2018-08-23T16:13:14.873Z,99450.00
2018-08-23T16:15:42.704Z,99448.00
2018-08-23T16:18:16.429Z,99451.00
2018-08-23T16:20:51.498Z,99451.00
2018-08-23T16:23:20.101Z,99455.00
2018-08-23T16:25:47.857Z,99442.00
2018-08-23T16:28:15.585Z,99454.00
2018-08-23T16:30:43.989Z,99459.00
2018-08-23T16:33:12.297Z,99466.00
2018-08-23T16:35:40.470Z,99461.00
2018-08-23T16:38:08.689Z,99472.00
2018-08-23T16:40:36.297Z,99483.00
2018-08-23T16:43:04.205Z,99495.00
2018-08-23T16:45:31.981Z,99498.00
2018-08-23T16:47:59.614Z,99493.00
2018-08-23T16:50:28.048Z,99500.00
2018-08-23T16:52:55.982Z,99499.00
2018-08-23T16:55:23.633Z,99497.00
2018-08-23T16:57:51.329Z,99493.00
2018-08-23T17:00:19.318Z,99493.00
2018-08-23T17:02:46.883Z,99493.00
2018-08-23T17:05:14.645Z,99490.00
2018-08-23T17:07:42.533Z,99482.00
2018-08-23T17:10:09.791Z,99472.00
2018-08-23T17:12:37.404Z,99468.00
2018-08-23T17:15:06.348Z,99474.00
2018-08-23T17:17:35.034Z,99470.00
2018-08-23T17:20:02.648Z,99458.00
2018-08-23T17:22:30.600Z,99449.00
2018-08-23T17:24:58.579Z,99438.00
2018-08-23T17:27:32.985Z,99434.00
2018-08-23T17:30:02.609Z,99439.00
2018-08-23T17:32:30.259Z,99439.00
2018-08-23T17:34:57.917Z,99432.00
2018-08-23T17:37:25.617Z,99433.00
2018-08-23T17:39:53.333Z,99441.00
2018-08-23T17:42:25.842Z,99443.00
2018-08-23T17:44:53.419Z,99439.00
2018-08-23T17:47:20.999Z,99430.00
2018-08-23T17:49:49.338Z,99424.00
2018-08-23T17:52:16.993Z,99422.00
2018-08-23T17:54:44.724Z,99424.00
2018-08-23T17:57:12.693Z,99425.00
2018-08-23T17:59:40.485Z,99427.00
2018-08-23T18:02:08.220Z,99420.00
2018-08-23T18:04:36.659Z,99416.00
2018-08-23T18:07:04.723Z,99415.00
2018-08-23T18:09:32.453Z,99419.00
2018-08-23T18:12:01.072Z,99425.00
2018-08-23T18:14:29.133Z,99433.00
2018-08-23T18:16:57.951Z,99433.00
2018-08-23T18:19:26.190Z,99429.00
2018-08-23T18:21:53.903Z,99427.00
2018-08-23T18:24:21.718Z,99430.00
2018-08-23T18:26:50.431Z,99426.00
2018-08-23T18:29:18.102Z,99425.00
2018-08-23T18:31:45.816Z,99420.00
2018-08-23T18:34:14.004Z,99416.00
2018-08-23T18:36:41.701Z,99423.00
2018-08-23T18:39:10.607Z,99424.00
2018-08-23T18:41:38.880Z,99426.00
2018-08-23T18:44:06.669Z,99427.00
2018-08-23T18:46:34.895Z,99427.00
2018-08-23T18:49:03.030Z,99427.00
2018-08-23T18:51:31.215Z,99421.00
2018-08-23T18:53:59.921Z,99412.00
2018-08-23T18:56:28.622Z,99413.00
2018-08-23T18:58:57.320Z,99406.00
2018-08-23T19:01:25.286Z,99408.00
2018-08-23T19:03:53.179Z,99401.00
2018-08-23T19:06:25.526Z,99401.00
2018-08-23T19:08:54.698Z,99401.00
2018-08-23T19:11:22.809Z,99399.00
2018-08-23T19:13:50.418Z,99403.00
2018-08-23T19:16:23.940Z,99403.00
2018-08-23T19:18:51.868Z,99405.00
2018-08-23T19:21:19.698Z,99405.00
2018-08-23T19:23:47.605Z,99404.00
2018-08-23T19:26:15.582Z,99413.00
2018-08-23T19:28:43.452Z,99413.00
2018-08-23T19:31:11.117Z,99413.00
2018-08-23T19:33:38.808Z,99413.00
2018-08-23T19:36:06.833Z,99412.00
2018-08-23T19:38:34.919Z,99405.00
2018-08-23T19:41:02.613Z,99403.00
2018-08-23T19:43:30.313Z,99392.00
2018-08-23T19:46:03.930Z,99393.00
2018-08-23T19:48:31.798Z,99384.00
2018-08-23T19:50:59.512Z,99391.00
2018-08-23T19:53:27.538Z,99389.00
2018-08-23T19:55:55.233Z,99391.00
2018-08-23T19:58:23.070Z,99388.00
2018-08-23T20:00:50.838Z,99386.00
2018-08-23T20:03:18.533Z,99387.00
2018-08-23T20:05:46.398Z,99389.00
2018-08-23T20:08:14.232Z,99381.00
2018-08-23T20:10:41.914Z,99379.00
2018-08-23T20:13:10.138Z,99383.00
2018-08-23T20:15:37.780Z,99384.00
2018-08-23T20:18:05.566Z,99385.00
2018-08-23T20:20:33.361Z,99382.00
2018-08-23T20:23:01.017Z,99384.00
2018-08-23T20:25:28.949Z,99385.00
2018-08-23T20:27:58.099Z,99386.00
2018-08-23T20:30:25.762Z,99386.00
2018-08-23T20:32:53.339Z,99383.00
2018-08-23T20:35:21.524Z,99373.00
2018-08-23T20:37:49.366Z,99369.00
2018-08-23T20:40:17.277Z,99373.00
2018-08-23T20:42:45.276Z,99375.00
2018-08-23T20:45:13.461Z,99384.00
2018-08-23T20:47:42.836Z,99379.00
2018-08-23T20:50:10.537Z,99377.00
2018-08-23T20:52:39.258Z,99375.00
2018-08-23T20:55:07.251Z,99374.00
2018-08-23T20:57:34.845Z,99380.00
2018-08-23T21:00:03.005Z,99375.00
2018-08-23T21:02:30.758Z,99372.00
2018-08-23T21:04:58.361Z,99368.00
2018-08-23T21:07:26.229Z,99371.00
2018-08-23T21:09:54.008Z,99375.00
2018-08-23T21:12:21.596Z,99375.00
2018-08-23T21:14:49.299Z,99372.00
2018-08-23T21:17:16.710Z,99369.00
2018-08-23T21:19:44.249Z,99368.00
2018-08-23T21:22:11.896Z,99367.00
2018-08-23T21:24:39.493Z,99363.00
2018-08-23T21:27:07.060Z,99364.00
2018-08-23T21:29:35.214Z,99360.00
2018-08-23T21:32:02.848Z,99356.00
2018-08-23T21:34:34.893Z,99358.00
2018-08-23T21:37:17.495Z,99355.00
2018-08-23T21:39:52.611Z,99355.00
2018-08-23T21:42:21.972Z,99353.00
2018-08-23T21:44:59.433Z,99347.00
2018-08-23T21:47:27.416Z,99343.00
2018-08-23T21:49:56.042Z,99342.00
2018-08-23T21:52:50.465Z,99344.00
2018-08-23T21:55:18.595Z,99342.00
2018-08-23T21:57:46.172Z,99336.00
2018-08-23T22:00:14.147Z,99341.00
2018-08-23T22:02:41.750Z,99348.00
2018-08-23T22:05:09.336Z,99349.00
2018-08-23T22:07:37.141Z,99353.00
2018-08-23T22:10:04.836Z,99362.00
2018-08-23T22:12:32.297Z,99372.00
2018-08-23T22:15:00.077Z,99369.00
2018-08-23T22:17:27.605Z,99369.00
2018-08-23T22:19:55.200Z,99370.00
2018-08-23T22:22:23.245Z,99366.00
2018-08-23T22:24:50.772Z,99360.00
2018-08-23T22:27:18.409Z,99353.00
2018-08-23T22:29:46.210Z,99361.00
2018-08-23T22:32:14.117Z,99362.00
2018-08-23T22:34:41.736Z,99363.00
2018-08-23T22:37:09.517Z,99368.00
2018-08-23T22:39:37.226Z,99365.00
2018-08-23T22:42:04.720Z,99358.00
2018-08-23T22:44:32.365Z,99351.00
2018-08-23T22:46:59.994Z,99356.00
2018-08-23T22:49:27.584Z,99347.00
2018-08-23T22:51:55.264Z,99339.00
2018-08-23T22:54:22.947Z,99334.00
2018-08-23T22:56:51.008Z,99331.00
2018-08-23T22:59:18.750Z,99327.00
2018-08-23T23:01:46.299Z,99328.00
2018-08-23T23:04:19.703Z,99324.00
2018-08-23T23:06:47.256Z,99333.00
2018-08-23T23:09:14.833Z,99330.00
2018-08-23T23:11:43.202Z,99325.00
2018-08-23T23:14:10.705Z,99323.00
2018-08-23T23:16:39.259Z,99318.00
2018-08-23T23:19:07.188Z,99319.00
2018-08-23T23:21:34.809Z,99316.00
2018-08-23T23:24:02.542Z,99319.00
2018-08-23T23:26:30.184Z,99321.00
2018-08-23T23:28:57.837Z,99317.00
2018-08-23T23:31:25.513Z,99319.00
2018-08-23T23:33:53.453Z,99322.00
2018-08-23T23:36:21.246Z,99326.00
2018-08-23T23:38:49.149Z,99329.00
2018-08-23T23:41:17.464Z,99322.00
2018-08-23T23:43:52.290Z,99319.00
2018-08-23T23:46:20.589Z,99314.00
2018-08-23T23:48:48.193Z,99311.00
2018-08-23T23:51:15.939Z,99305.00
2018-08-23T23:53:43.513Z,99308.00
2018-08-23T23:56:11.297Z,99309.00
2018-08-23T23:58:38.892Z,99307.00
